Time;durP1;ratioP1;P1;durP2;ratioP2;P2;SDS_P1;SDS_P2;PMS_P1;PMS_P2;Temp;Humidity;BMP_temperature;BMP_pressure;BME280_temperature;BME280_humidity;BME280_pressure;Samples;Min_cycle;Max_cycle;Signal;HPM_P1;HPM_P2
2022/10/10 00:01:19;;;;;;;4.82;3.38;;;11.40;99.90;;;;;;5084099;28;20028;-31
2022/10/10 00:03:45;;;;;;;7.32;3.40;;;11.40;99.90;;;;;;5086434;28;20024;-34
2022/10/10 00:06:12;;;;;;;4.07;3.45;;;11.40;99.90;;;;;;5078998;28;20027;-32
2022/10/10 00:08:37;;;;;;;4.57;3.40;;;11.40;99.90;;;;;;5081936;28;20028;-31
2022/10/10 00:11:04;;;;;;;9.48;4.00;;;11.40;99.90;;;;;;5080903;28;20514;-31
2022/10/10 00:13:31;;;;;;;5.00;3.70;;;11.40;99.90;;;;;;5091634;28;20561;-31
2022/10/10 00:15:57;;;;;;;5.93;3.67;;;11.30;99.90;;;;;;5084557;28;20033;-32
2022/10/10 00:18:22;;;;;;;9.50;3.85;;;11.30;99.90;;;;;;5083977;28;20020;-33
2022/10/10 00:20:50;;;;;;;7.25;3.47;;;11.20;99.90;;;;;;5090819;28;20032;-52
2022/10/10 00:23:16;;;;;;;5.28;4.20;;;11.20;99.90;;;;;;5090347;28;20026;-33
2022/10/10 00:25:42;;;;;;;8.48;3.75;;;11.30;99.90;;;;;;5094993;28;20102;-34
2022/10/10 00:28:07;;;;;;;3.85;3.17;;;11.20;99.90;;;;;;5095519;28;20271;-31
2022/10/10 00:30:33;;;;;;;5.78;3.55;;;11.20;99.90;;;;;;5093373;28;20020;-31
2022/10/10 00:32:59;;;;;;;5.82;3.13;;;11.10;99.90;;;;;;5096005;28;20016;-31
2022/10/10 00:35:26;;;;;;;4.10;3.33;;;11.10;99.90;;;;;;5094275;28;20035;-31
2022/10/10 00:37:52;;;;;;;6.43;3.33;;;11.10;99.90;;;;;;5095834;28;20131;-30
2022/10/10 00:40:18;;;;;;;10.38;4.22;;;11.10;99.90;;;;;;5094961;28;20099;-36
2022/10/10 00:42:43;;;;;;;5.45;3.28;;;11.10;99.90;;;;;;5095352;28;20036;-32
2022/10/10 00:45:32;;;;;;;5.72;4.00;;;11.10;99.90;;;;;;5095898;28;20024;-33
2022/10/10 00:48:07;;;;;;;4.55;3.65;;;11.10;99.90;;;;;;5088208;28;20483;-32
2022/10/10 00:50:37;;;;;;;12.95;4.28;;;11.10;99.90;;;;;;5083832;28;20032;-33
2022/10/10 00:53:05;;;;;;;7.85;3.65;;;11.10;99.90;;;;;;5084991;28;20498;-33
2022/10/10 00:55:32;;;;;;;7.25;3.90;;;11.00;99.90;;;;;;5093936;28;20039;-34
2022/10/10 00:57:58;;;;;;;11.55;3.42;;;11.00;99.90;;;;;;5057403;28;20027;-33
2022/10/10 01:00:23;;;;;;;7.63;4.05;;;11.00;99.90;;;;;;5094432;28;20016;-37
2022/10/10 01:02:49;;;;;;;8.77;4.07;;;11.00;99.90;;;;;;5087902;28;20020;-32
2022/10/10 01:05:14;;;;;;;6.10;3.42;;;10.90;99.90;;;;;;5090843;28;20028;-36
2022/10/10 01:07:41;;;;;;;8.70;3.35;;;10.90;99.90;;;;;;5091036;28;20032;-30
2022/10/10 01:10:18;;;;;;;5.93;4.18;;;10.90;99.90;;;;;;5083401;28;20036;-38
2022/10/10 01:13:01;;;;;;;3.95;3.20;;;10.90;99.90;;;;;;5064043;28;20119;-40
2022/10/10 01:15:48;;;;;;;5.05;3.40;;;10.90;99.90;;;;;;5094893;28;20028;-41
2022/10/10 01:18:43;;;;;;;6.63;3.90;;;10.90;99.90;;;;;;5075646;28;20560;-38
2022/10/10 01:21:31;;;;;;;4.50;3.50;;;10.90;99.90;;;;;;5082402;28;20039;-39
2022/10/10 01:23:59;;;;;;;6.10;3.75;;;10.90;99.90;;;;;;5095216;28;20070;-39
2022/10/10 01:26:49;;;;;;;6.90;3.65;;;10.80;99.90;;;;;;5095765;28;20024;-40
2022/10/10 01:29:32;;;;;;;5.72;3.58;;;10.90;99.90;;;;;;5095188;28;20024;-38
2022/10/10 01:32:32;;;;;;;9.65;4.97;;;10.80;99.90;;;;;;5094659;28;20112;-39
2022/10/10 01:35:28;;;;;;;6.40;3.95;;;10.80;99.90;;;;;;5076005;28;20488;-39
2022/10/10 01:37:53;;;;;;;5.50;4.18;;;10.80;99.90;;;;;;5095030;28;20032;-40
2022/10/10 01:40:28;;;;;;;5.32;3.92;;;10.80;99.90;;;;;;5085844;28;20035;-41
2022/10/10 01:42:58;;;;;;;9.45;3.58;;;10.80;99.90;;;;;;5075635;28;20455;-40
2022/10/10 01:45:25;;;;;;;9.52;4.50;;;10.80;99.90;;;;;;5075450;28;20468;-48
2022/10/10 01:47:55;;;;;;;7.15;4.13;;;10.70;99.90;;;;;;5075698;28;20031;-40
2022/10/10 01:50:25;;;;;;;6.13;3.65;;;10.70;99.90;;;;;;5079686;28;20491;-39
2022/10/10 01:53:22;;;;;;;4.35;3.35;;;10.70;99.90;;;;;;5095296;28;20077;-40
2022/10/10 01:56:20;;;;;;;6.20;3.53;;;10.60;99.90;;;;;;5095177;28;20359;-40
2022/10/10 01:59:25;;;;;;;7.78;3.97;;;10.60;99.90;;;;;;5061426;28;20450;-52
2022/10/10 02:02:13;;;;;;;5.65;4.28;;;10.50;99.90;;;;;;5068530;28;20032;-41
2022/10/10 02:05:03;;;;;;;4.05;2.88;;;10.60;99.90;;;;;;5078573;28;20028;-39
2022/10/10 02:07:51;;;;;;;4.18;3.78;;;10.50;99.90;;;;;;5084612;28;20523;-45
2022/10/10 02:10:23;;;;;;;9.43;3.90;;;10.50;99.90;;;;;;5081938;28;20036;-40
2022/10/10 02:12:49;;;;;;;5.75;3.90;;;10.50;99.90;;;;;;5070163;28;20036;-40
2022/10/10 02:15:20;;;;;;;7.03;3.92;;;10.50;99.90;;;;;;5092480;28;20514;-43
2022/10/10 02:17:47;;;;;;;12.15;3.72;;;10.50;99.90;;;;;;5085910;28;20154;-40
2022/10/10 02:20:18;;;;;;;5.63;3.90;;;10.50;99.90;;;;;;5089558;28;20027;-40
2022/10/10 02:22:45;;;;;;;4.53;3.78;;;10.50;99.90;;;;;;5082198;28;20496;-42
2022/10/10 02:25:12;;;;;;;6.18;4.13;;;10.50;99.90;;;;;;5089333;28;20028;-41
2022/10/10 02:28:04;;;;;;;10.88;5.97;;;10.40;99.90;;;;;;5094633;28;20050;-40
2022/10/10 02:30:33;;;;;;;8.85;3.65;;;10.40;99.90;;;;;;5077606;28;20533;-34
2022/10/10 02:33:01;;;;;;;8.20;3.90;;;10.40;99.90;;;;;;5056225;28;20025;-37
2022/10/10 02:35:48;;;;;;;6.78;3.80;;;10.40;99.90;;;;;;5090298;28;20036;-35
2022/10/10 02:38:15;;;;;;;9.20;4.75;;;10.40;99.90;;;;;;5094668;28;20036;-32
2022/10/10 02:40:43;;;;;;;14.35;3.70;;;10.40;99.90;;;;;;5090521;28;20067;-34
2022/10/10 02:43:11;;;;;;;7.82;3.78;;;10.50;99.90;;;;;;5074012;28;20024;-32
2022/10/10 02:45:38;;;;;;;4.57;3.60;;;10.50;99.90;;;;;;5091153;28;20497;-32
2022/10/10 02:48:05;;;;;;;9.43;4.05;;;10.50;99.90;;;;;;5093513;28;20059;-40
2022/10/10 02:50:32;;;;;;;8.02;4.78;;;10.60;99.90;;;;;;5091466;28;20496;-39
2022/10/10 02:52:57;;;;;;;6.28;4.18;;;10.50;99.90;;;;;;5094246;28;20485;-56
2022/10/10 02:55:23;;;;;;;8.68;4.00;;;10.50;99.90;;;;;;5092363;28;20099;-33
2022/10/10 02:57:49;;;;;;;5.13;3.28;;;10.50;99.90;;;;;;5093029;28;20145;-40
2022/10/10 03:00:15;;;;;;;13.45;3.35;;;10.50;99.90;;;;;;5088364;28;20498;-37
2022/10/10 03:02:41;;;;;;;8.32;3.60;;;10.50;99.90;;;;;;5073596;28;20025;-32
2022/10/10 03:05:07;;;;;;;5.20;3.60;;;10.50;99.90;;;;;;5076114;28;20519;-33
2022/10/10 03:07:32;;;;;;;11.73;3.95;;;10.50;99.90;;;;;;5075330;28;20548;-34
2022/10/10 03:09:58;;;;;;;8.52;3.53;;;10.50;99.90;;;;;;5090057;28;20069;-37
2022/10/10 03:12:23;;;;;;;8.63;3.40;;;10.60;99.90;;;;;;5093705;28;20064;-31
2022/10/10 03:14:49;;;;;;;8.63;3.58;;;10.60;99.90;;;;;;5088639;28;20020;-31
2022/10/10 03:17:15;;;;;;;5.75;3.63;;;10.60;99.90;;;;;;5073240;28;20077;-33
2022/10/10 03:19:40;;;;;;;8.27;3.72;;;10.60;99.90;;;;;;5074047;28;20025;-51
2022/10/10 03:22:06;;;;;;;5.45;3.28;;;10.60;99.90;;;;;;5089803;28;20024;-36
2022/10/10 03:24:31;;;;;;;4.50;2.97;;;10.60;99.90;;;;;;5084813;28;20023;-34
2022/10/10 03:26:57;;;;;;;6.63;3.28;;;10.50;99.90;;;;;;5054823;28;20036;-44
2022/10/10 03:29:23;;;;;;;6.65;3.30;;;10.60;99.90;;;;;;5086325;28;20052;-40
2022/10/10 03:31:49;;;;;;;5.78;3.13;;;10.60;99.90;;;;;;5071432;28;20032;-42
2022/10/10 03:34:15;;;;;;;5.20;3.88;;;10.60;99.90;;;;;;5077593;28;20581;-41
2022/10/10 03:36:40;;;;;;;4.60;3.40;;;10.60;99.90;;;;;;5086835;28;20044;-40
2022/10/10 03:39:08;;;;;;;8.82;3.70;;;10.50;99.90;;;;;;5081420;28;20027;-36
2022/10/10 03:41:34;;;;;;;3.83;2.10;;;10.60;99.90;;;;;;5081714;28;20048;-41
2022/10/10 03:44:00;;;;;;;5.80;3.30;;;10.60;99.90;;;;;;5078544;28;20644;-38
2022/10/10 03:46:25;;;;;;;3.00;2.53;;;10.60;99.90;;;;;;5087372;28;20059;-39
2022/10/10 03:48:51;;;;;;;8.85;3.45;;;10.50;99.90;;;;;;5091606;28;20020;-43
2022/10/10 03:51:17;;;;;;;4.30;3.35;;;10.60;99.90;;;;;;5087970;28;20532;-39
2022/10/10 03:53:42;;;;;;;4.25;3.03;;;10.50;99.90;;;;;;5088341;28;20095;-40
2022/10/10 03:56:08;;;;;;;7.35;3.53;;;10.60;99.90;;;;;;5073310;28;20032;-38
2022/10/10 03:58:33;;;;;;;4.80;3.40;;;10.60;99.90;;;;;;5073238;28;20024;-40
2022/10/10 04:01:01;;;;;;;8.88;3.47;;;10.60;99.90;;;;;;5087311;28;20404;-40
2022/10/10 04:03:28;;;;;;;5.97;3.05;;;10.60;99.90;;;;;;5090724;28;20024;-43
2022/10/10 04:05:54;;;;;;;6.18;3.45;;;10.60;99.90;;;;;;5076284;28;20044;-38
2022/10/10 04:08:20;;;;;;;6.93;3.33;;;10.60;99.90;;;;;;5092895;28;20031;-39
2022/10/10 04:10:50;;;;;;;4.28;3.22;;;10.50;99.90;;;;;;5081590;28;20020;-46
2022/10/10 04:13:16;;;;;;;6.43;3.40;;;10.50;99.90;;;;;;5093089;28;20380;-33
2022/10/10 04:15:42;;;;;;;6.13;3.03;;;10.50;99.90;;;;;;5084965;28;20502;-35
2022/10/10 04:18:08;;;;;;;6.82;3.50;;;10.50;99.90;;;;;;5093040;28;20103;-34
2022/10/10 04:20:33;;;;;;;4.28;3.40;;;10.50;99.90;;;;;;5079077;28;20021;-35
2022/10/10 04:22:59;;;;;;;6.88;3.13;;;10.60;99.90;;;;;;5089342;28;20445;-42
2022/10/10 04:25:25;;;;;;;8.85;4.13;;;10.50;99.90;;;;;;5091897;28;20040;-41
2022/10/10 04:27:50;;;;;;;12.35;3.83;;;10.60;99.90;;;;;;5075600;28;20089;-40
2022/10/10 04:30:16;;;;;;;3.75;2.67;;;10.50;99.90;;;;;;5066737;28;20036;-40
2022/10/10 04:32:42;;;;;;;6.10;3.05;;;10.60;99.90;;;;;;5075390;28;20032;-39
2022/10/10 04:35:08;;;;;;;5.90;3.33;;;10.60;99.90;;;;;;5081499;28;20047;-36
2022/10/10 04:37:34;;;;;;;6.03;3.28;;;10.60;99.90;;;;;;5072068;28;20078;-33
2022/10/10 04:39:59;;;;;;;9.50;4.00;;;10.60;99.90;;;;;;5089953;28;20038;-32
2022/10/10 04:42:25;;;;;;;4.10;2.75;;;10.60;99.90;;;;;;5091607;28;20020;-41
2022/10/10 04:44:51;;;;;;;3.78;3.00;;;10.50;99.90;;;;;;5083999;28;20052;-44
2022/10/10 04:47:16;;;;;;;5.90;2.63;;;10.50;99.90;;;;;;5088429;28;20440;-40
2022/10/10 04:49:42;;;;;;;6.78;3.03;;;10.50;99.90;;;;;;5092824;28;20028;-43
2022/10/10 04:52:11;;;;;;;7.03;3.42;;;10.50;99.90;;;;;;5090469;28;20067;-39
2022/10/10 04:54:37;;;;;;;6.97;3.35;;;10.50;99.90;;;;;;5091906;28;20024;-31
2022/10/10 04:57:03;;;;;;;10.00;3.40;;;10.50;99.90;;;;;;5091578;28;20055;-39
2022/10/10 04:59:28;;;;;;;9.05;3.40;;;10.50;99.90;;;;;;5091405;28;20016;-35
2022/10/10 05:01:54;;;;;;;12.93;3.88;;;10.50;99.90;;;;;;5074285;28;20031;-41
2022/10/10 05:04:20;;;;;;;4.18;3.20;;;10.50;99.90;;;;;;5072383;28;20024;-71
2022/10/10 05:06:45;;;;;;;5.80;3.65;;;10.50;99.90;;;;;;5085852;28;20519;-41
2022/10/10 05:09:11;;;;;;;8.93;4.10;;;10.50;99.90;;;;;;5092501;28;20020;-41
2022/10/10 05:11:37;;;;;;;7.80;3.55;;;10.50;99.90;;;;;;5094834;28;20032;-40
2022/10/10 05:14:03;;;;;;;8.90;3.47;;;10.60;99.90;;;;;;5083956;28;20384;-41
2022/10/10 05:16:28;;;;;;;6.30;3.80;;;10.60;99.90;;;;;;5095855;28;20111;-41
2022/10/10 05:18:56;;;;;;;6.22;3.70;;;10.50;99.90;;;;;;5095906;28;20024;-45
2022/10/10 05:21:21;;;;;;;5.20;2.78;;;10.50;99.90;;;;;;5093790;28;20492;-41
2022/10/10 05:23:47;;;;;;;5.85;3.75;;;10.60;99.90;;;;;;5095023;28;20031;-42
2022/10/10 05:26:13;;;;;;;7.00;3.60;;;10.60;99.90;;;;;;5084071;28;20537;-39
2022/10/10 05:28:38;;;;;;;8.40;4.57;;;10.60;99.90;;;;;;5095308;28;20544;-35
2022/10/10 05:31:05;;;;;;;7.00;3.45;;;10.60;99.90;;;;;;5093815;28;20020;-32
2022/10/10 05:33:31;;;;;;;9.50;3.95;;;10.60;99.90;;;;;;5094436;28;20523;-35
2022/10/10 05:36:12;;;;;;;4.10;2.45;;;10.60;99.90;;;;;;5094245;28;20085;-33
2022/10/10 05:38:39;;;;;;;8.07;3.65;;;10.60;99.90;;;;;;5095076;28;20103;-34
2022/10/10 05:41:06;;;;;;;7.53;4.10;;;10.60;99.90;;;;;;5092572;28;20031;-32
2022/10/10 05:43:32;;;;;;;9.07;4.70;;;10.60;99.90;;;;;;5094261;28;20020;-37
2022/10/10 05:45:57;;;;;;;16.00;4.68;;;10.70;99.90;;;;;;5093906;28;21110;-41
2022/10/10 05:48:23;;;;;;;4.50;3.20;;;10.70;99.90;;;;;;5082771;28;20065;-32
2022/10/10 05:50:55;;;;;;;6.00;3.63;;;10.70;99.90;;;;;;5070624;28;20472;-32
2022/10/10 05:53:22;;;;;;;6.28;3.50;;;10.70;99.90;;;;;;5095219;28;20067;-34
2022/10/10 05:55:48;;;;;;;8.88;3.40;;;10.70;99.90;;;;;;5094436;28;20020;-32
2022/10/10 05:58:14;;;;;;;6.05;3.58;;;10.70;99.90;;;;;;5093423;28;20042;-33
2022/10/10 06:00:40;;;;;;;9.05;3.33;;;10.60;99.90;;;;;;5091553;28;20111;-36
2022/10/10 06:03:07;;;;;;;6.57;4.68;;;10.70;99.90;;;;;;5079432;28;20032;-37
2022/10/10 06:05:33;;;;;;;6.72;3.50;;;10.60;99.90;;;;;;5087749;28;20020;-32
2022/10/10 06:07:58;;;;;;;9.07;3.63;;;10.70;99.90;;;;;;5094898;28;20032;-33
2022/10/10 06:10:24;;;;;;;5.05;3.63;;;10.70;99.90;;;;;;5095195;28;20028;-32
2022/10/10 06:12:50;;;;;;;13.35;5.70;;;10.70;99.90;;;;;;5089247;28;20025;-32
2022/10/10 06:15:16;;;;;;;4.97;3.38;;;10.70;99.90;;;;;;5087245;28;20036;-31
2022/10/10 06:17:41;;;;;;;4.70;3.42;;;10.70;99.90;;;;;;5094501;28;20085;-35
2022/10/10 06:20:07;;;;;;;6.18;4.30;;;10.70;99.90;;;;;;5076710;28;20023;-32
2022/10/10 06:22:33;;;;;;;6.70;3.35;;;10.70;99.90;;;;;;5076840;28;20526;-33
2022/10/10 06:24:58;;;;;;;6.05;3.47;;;10.70;99.90;;;;;;5084380;28;20020;-32
2022/10/10 06:27:24;;;;;;;5.68;3.17;;;10.80;99.90;;;;;;5083023;28;20378;-34
2022/10/10 06:29:49;;;;;;;5.13;3.30;;;10.80;99.90;;;;;;5089104;28;20024;-49
2022/10/10 06:32:15;;;;;;;8.07;3.58;;;10.80;99.90;;;;;;5074287;28;20029;-32
2022/10/10 06:34:41;;;;;;;5.32;3.75;;;10.90;99.90;;;;;;5081020;28;20127;-35
2022/10/10 06:37:07;;;;;;;4.53;3.15;;;10.90;99.90;;;;;;5089413;28;20028;-36
2022/10/10 06:39:33;;;;;;;8.70;3.83;;;10.90;99.90;;;;;;5087753;28;20482;-40
2022/10/10 06:41:58;;;;;;;6.82;3.50;;;11.00;99.90;;;;;;5082567;28;20107;-41
2022/10/10 06:44:24;;;;;;;6.22;3.65;;;11.00;99.90;;;;;;5077440;28;20027;-38
2022/10/10 06:46:50;;;;;;;10.90;3.70;;;11.00;99.90;;;;;;5088551;28;20043;-40
2022/10/10 06:49:15;;;;;;;13.77;3.65;;;11.10;99.90;;;;;;5080984;28;20468;-40
2022/10/10 06:51:41;;;;;;;4.93;3.20;;;11.20;99.90;;;;;;5065187;28;20044;-40
2022/10/10 06:54:07;;;;;;;7.28;4.35;;;11.30;99.90;;;;;;5090177;28;20114;-41
2022/10/10 06:56:32;;;;;;;5.65;3.55;;;11.30;99.90;;;;;;5092778;28;20495;-49
2022/10/10 06:58:58;;;;;;;9.13;3.42;;;11.40;99.90;;;;;;5083500;28;20115;-47
2022/10/10 07:01:25;;;;;;;9.95;5.18;;;11.40;99.90;;;;;;5083908;28;20024;-41
2022/10/10 07:03:50;;;;;;;10.25;4.00;;;11.40;99.90;;;;;;5078963;28;20776;-40
2022/10/10 07:06:17;;;;;;;4.32;3.60;;;11.50;99.90;;;;;;5084037;28;20063;-40
2022/10/10 07:08:43;;;;;;;7.88;3.95;;;11.60;99.90;;;;;;5076304;28;20387;-47
2022/10/10 07:11:08;;;;;;;7.00;3.83;;;11.60;99.90;;;;;;5080476;28;20024;-39
2022/10/10 07:13:35;;;;;;;9.05;4.25;;;11.70;99.90;;;;;;5081183;28;20024;-40
2022/10/10 07:16:02;;;;;;;11.02;4.07;;;11.70;99.90;;;;;;5081588;28;20537;-40
2022/10/10 07:18:27;;;;;;;10.02;3.75;;;11.80;99.90;;;;;;5087764;28;20060;-41
2022/10/10 07:20:58;;;;;;;6.78;3.75;;;11.80;99.90;;;;;;5088604;28;20290;-42
2022/10/10 07:23:24;;;;;;;5.70;3.65;;;11.90;99.90;;;;;;5070116;28;20024;-35
2022/10/10 07:25:51;;;;;;;9.10;3.88;;;12.00;99.90;;;;;;5088422;28;20059;-43
2022/10/10 07:28:17;;;;;;;6.85;3.65;;;12.00;99.90;;;;;;5079531;28;20040;-39
2022/10/10 07:30:45;;;;;;;6.75;3.42;;;12.20;99.90;;;;;;5080988;28;20073;-41
2022/10/10 07:33:12;;;;;;;5.10;3.70;;;12.20;99.90;;;;;;5089363;28;20059;-43
2022/10/10 07:35:37;;;;;;;10.63;4.27;;;12.30;99.90;;;;;;5084163;28;20052;-38
2022/10/10 07:38:03;;;;;;;8.45;3.22;;;12.40;99.90;;;;;;5082060;28;20286;-39
2022/10/10 07:40:29;;;;;;;6.72;3.88;;;12.40;99.90;;;;;;5082905;28;20048;-39
2022/10/10 07:42:54;;;;;;;10.30;4.20;;;12.40;99.90;;;;;;5063762;28;20487;-32
2022/10/10 07:45:20;;;;;;;6.07;3.65;;;12.40;99.90;;;;;;5083979;28;20028;-38
2022/10/10 07:47:45;;;;;;;5.85;3.60;;;12.50;99.90;;;;;;5076670;28;20024;-38
2022/10/10 07:50:12;;;;;;;5.50;3.47;;;12.50;99.90;;;;;;5092200;28;20472;-36
2022/10/10 07:52:38;;;;;;;9.80;3.45;;;12.60;99.90;;;;;;5074292;28;20392;-40
2022/10/10 07:55:05;;;;;;;6.32;3.33;;;12.60;99.90;;;;;;5089964;28;20062;-32
2022/10/10 07:57:33;;;;;;;8.80;3.90;;;12.70;99.90;;;;;;5090571;28;20043;-38
2022/10/10 08:00:05;;;;;;;8.15;3.53;;;12.80;99.90;;;;;;5092135;28;20024;-36
2022/10/10 08:02:30;;;;;;;8.07;4.00;;;12.90;99.90;;;;;;5092650;28;20551;-32
2022/10/10 08:04:56;;;;;;;9.18;3.95;;;13.00;99.90;;;;;;5091319;28;20020;-33
2022/10/10 08:07:21;;;;;;;13.38;4.07;;;13.20;99.90;;;;;;5071371;28;20498;-35
2022/10/10 08:09:47;;;;;;;5.22;3.70;;;13.30;99.90;;;;;;5082461;28;20024;-31
2022/10/10 08:12:12;;;;;;;7.97;3.58;;;13.40;99.90;;;;;;5092079;28;20032;-33
2022/10/10 08:14:39;;;;;;;5.22;3.80;;;13.60;99.90;;;;;;5073844;28;20052;-36
2022/10/10 08:17:04;;;;;;;8.50;3.47;;;13.80;99.90;;;;;;5073831;28;20432;-33
2022/10/10 08:19:30;;;;;;;7.22;4.05;;;14.00;99.90;;;;;;5091953;28;20020;-31
2022/10/10 08:21:56;;;;;;;11.10;3.88;;;14.10;99.90;;;;;;5091397;28;20020;-32
2022/10/10 08:24:21;;;;;;;9.05;3.67;;;14.20;99.90;;;;;;5090610;28;20039;-35
2022/10/10 08:26:47;;;;;;;3.95;3.55;;;14.30;99.90;;;;;;5091203;28;20067;-36
2022/10/10 08:29:13;;;;;;;10.85;3.25;;;14.40;99.90;;;;;;5090982;28;20020;-32
2022/10/10 08:31:38;;;;;;;9.10;4.00;;;14.40;99.90;;;;;;5091711;28;20062;-33
2022/10/10 08:34:04;;;;;;;7.85;4.32;;;14.30;99.90;;;;;;5091565;28;20127;-35
2022/10/10 08:36:30;;;;;;;8.65;4.20;;;14.30;99.90;;;;;;5091597;28;20152;-34
2022/10/10 08:38:59;;;;;;;8.15;3.30;;;14.30;99.90;;;;;;5092195;28;20477;-48
2022/10/10 08:41:38;;;;;;;8.43;3.53;;;14.40;99.90;;;;;;5077787;28;20028;-35
2022/10/10 08:44:18;;;;;;;5.97;3.78;;;14.30;99.90;;;;;;5079110;28;20041;-34
2022/10/10 08:46:53;;;;;;;9.57;3.97;;;14.30;99.90;;;;;;5093982;28;20557;-42
2022/10/10 08:49:47;;;;;;;13.95;4.88;;;14.30;99.90;;;;;;5086023;28;20039;-43
2022/10/10 08:52:41;;;;;;;8.25;3.55;;;14.30;99.90;;;;;;5063290;28;20079;-41
2022/10/10 08:55:15;;;;;;;5.90;3.22;;;14.40;99.90;;;;;;5094733;28;20480;-40
2022/10/10 08:57:52;;;;;;;4.82;3.38;;;14.40;99.90;;;;;;5095735;28;20032;-40
2022/10/10 09:00:21;;;;;;;8.48;3.88;;;14.30;99.90;;;;;;5095405;28;20107;-41
2022/10/10 09:02:52;;;;;;;11.18;4.10;;;14.30;99.90;;;;;;5096188;28;20384;-39
2022/10/10 09:05:25;;;;;;;12.23;4.28;;;14.30;99.90;;;;;;5096054;28;20135;-42
2022/10/10 09:08:10;;;;;;;7.22;4.10;;;14.30;99.90;;;;;;5095651;28;20024;-41
2022/10/10 09:10:58;;;;;;;5.80;3.33;;;14.40;99.90;;;;;;5075792;28;20434;-44
2022/10/10 09:13:38;;;;;;;7.97;3.83;;;14.40;99.90;;;;;;5083445;28;20061;-42
2022/10/10 09:16:22;;;;;;;12.38;4.43;;;14.40;99.90;;;;;;5095330;28;20038;-44
2022/10/10 09:19:20;;;;;;;3.95;3.53;;;14.50;99.90;;;;;;5095424;28;20074;-41
2022/10/10 09:21:46;;;;;;;6.35;4.10;;;14.50;99.90;;;;;;5067165;28;20050;-41
2022/10/10 09:24:23;;;;;;;6.82;3.60;;;14.60;99.90;;;;;;5094701;28;20503;-40
2022/10/10 09:26:59;;;;;;;7.43;4.25;;;14.60;99.90;;;;;;5092028;28;20066;-41
2022/10/10 09:29:31;;;;;;;4.13;3.38;;;14.70;99.90;;;;;;5095559;28;20028;-39
2022/10/10 09:32:35;;;;;;;13.32;4.45;;;14.70;99.90;;;;;;5076565;28;20039;-41
2022/10/10 09:35:29;;;;;;;4.57;3.80;;;14.70;99.90;;;;;;5094640;28;20412;-42
2022/10/10 09:38:22;;;;;;;7.90;3.92;;;14.90;99.90;;;;;;5093237;28;20468;-40
2022/10/10 09:41:00;;;;;;;12.98;3.88;;;14.90;99.90;;;;;;5075467;28;20024;-41
2022/10/10 09:43:31;;;;;;;5.32;3.20;;;15.00;99.90;;;;;;5090385;28;20031;-42
2022/10/10 09:45:56;;;;;;;9.23;3.78;;;15.00;99.90;;;;;;5088463;28;20029;-34
2022/10/10 09:48:34;;;;;;;8.30;3.95;;;15.10;99.90;;;;;;5081679;28;20112;-33
2022/10/10 09:51:01;;;;;;;;;;;15.20;99.90;;;;;;5078161;28;20107;-36
2022/10/10 09:53:27;;;;;;;7.15;3.67;;;15.30;99.90;;;;;;5094025;28;19907;-36
2022/10/10 09:55:54;;;;;;;10.38;4.30;;;15.40;99.90;;;;;;5089954;28;20107;-32
2022/10/10 09:58:34;;;;;;;11.00;4.10;;;15.50;99.90;;;;;;5084137;28;20033;-34
2022/10/10 10:01:14;;;;;;;9.48;3.70;;;15.50;99.90;;;;;;5087299;28;20503;-40
2022/10/10 10:03:40;;;;;;;7.32;3.80;;;15.50;99.90;;;;;;5076373;28;20028;-44
2022/10/10 10:06:12;;;;;;;9.07;4.38;;;15.50;99.90;;;;;;5095390;28;20028;-41
2022/10/10 10:08:37;;;;;;;13.55;4.20;;;15.60;99.90;;;;;;5092543;28;20032;-37
2022/10/10 10:11:04;;;;;;;10.75;4.57;;;15.70;99.90;;;;;;5093937;28;20020;-41
2022/10/10 10:13:31;;;;;;;6.45;3.45;;;15.80;99.90;;;;;;5087492;28;20071;-44
2022/10/10 10:16:10;;;;;;;10.20;4.13;;;15.80;99.90;;;;;;5092907;28;20024;-42
2022/10/10 10:18:39;;;;;;;6.03;3.67;;;15.90;99.90;;;;;;5094080;28;20495;-40
2022/10/10 10:21:22;;;;;;;8.15;4.38;;;16.00;99.90;;;;;;5094203;28;20051;-39
2022/10/10 10:23:53;;;;;;;7.50;4.70;;;16.00;99.90;;;;;;5087205;28;20047;-45
2022/10/10 10:26:19;;;;;;;9.20;4.15;;;16.10;99.90;;;;;;5066483;28;20537;-44
2022/10/10 10:28:46;;;;;;;9.80;4.30;;;16.20;99.90;;;;;;5089076;28;20024;-45
2022/10/10 10:31:43;;;;;;;11.52;4.53;;;16.30;99.90;;;;;;5074418;28;20108;-44
2022/10/10 10:34:40;;;;;;;8.73;4.38;;;16.30;99.90;;;;;;5075261;28;20032;-46
2022/10/10 10:37:18;;;;;;;;;;;16.30;99.90;;;;;;5093709;28;20064;-47
2022/10/10 10:39:49;;;;;;;11.02;4.00;;;16.20;99.90;;;;;;5093786;28;19917;-43
2022/10/10 10:42:40;;;;;;;6.70;4.28;;;16.20;99.90;;;;;;5093288;28;20028;-42
2022/10/10 10:45:39;;;;;;;5.88;4.13;;;16.20;99.90;;;;;;5094205;28;20070;-43
2022/10/10 10:48:22;;;;;;;8.43;3.90;;;16.30;99.90;;;;;;5087349;28;20028;-53
2022/10/10 10:50:53;;;;;;;7.07;3.75;;;16.50;99.90;;;;;;5094259;28;20028;-39
2022/10/10 10:53:21;;;;;;;6.75;4.68;;;16.80;99.90;;;;;;5093117;28;20024;-41
2022/10/10 10:56:11;;;;;;;17.10;4.15;;;16.90;99.90;;;;;;5088704;28;20055;-50
2022/10/10 10:58:42;;;;;;;5.63;3.75;;;16.90;99.90;;;;;;5091582;28;20475;-41
2022/10/10 11:01:15;;;;;;;13.52;4.45;;;16.90;99.90;;;;;;5093421;28;20051;-41
2022/10/10 11:04:10;;;;;;;11.95;4.47;;;16.90;99.90;;;;;;5093375;28;20472;-40
2022/10/10 11:06:58;;;;;;;7.25;4.40;;;16.70;99.90;;;;;;5092892;28;20028;-42
2022/10/10 11:09:37;;;;;;;7.35;3.80;;;16.70;99.90;;;;;;5085051;28;20036;-41
2022/10/10 11:12:38;;;;;;;12.35;4.82;;;16.70;99.90;;;;;;5056831;28;20098;-42
2022/10/10 11:15:28;;;;;;;4.53;3.42;;;16.80;99.90;;;;;;4994437;28;20073;-41
2022/10/10 11:18:11;;;;;;;7.13;3.88;;;16.90;99.90;;;;;;5078379;28;20499;-40
2022/10/10 11:20:44;;;;;;;5.82;4.03;;;17.00;99.90;;;;;;5075293;28;20103;-42
2022/10/10 11:23:18;;;;;;;11.15;4.38;;;16.90;99.90;;;;;;5073212;28;20067;-40
2022/10/10 11:26:04;;;;;;;7.07;4.32;;;16.80;99.90;;;;;;5073338;28;20411;-43
2022/10/10 11:28:56;;;;;;;11.70;4.20;;;16.80;99.90;;;;;;5073238;28;20023;-39
2022/10/10 11:31:38;;;;;;;9.90;4.28;;;16.80;99.90;;;;;;5037907;28;20048;-42
2022/10/10 11:34:33;;;;;;;5.70;4.45;;;16.80;99.90;;;;;;5091069;28;20073;-42
2022/10/10 11:37:06;;;;;;;7.50;4.15;;;16.80;99.90;;;;;;5082094;28;20032;-40
2022/10/10 11:39:59;;;;;;;15.07;4.57;;;16.80;99.90;;;;;;5079354;28;20016;-37
2022/10/10 11:42:44;;;;;;;14.38;4.80;;;16.80;99.90;;;;;;5080042;28;20044;-33
2022/10/10 11:45:28;;;;;;;6.35;3.70;;;16.80;99.90;;;;;;5086182;28;20506;-41
2022/10/10 11:48:18;;;;;;;10.25;3.97;;;16.70;99.90;;;;;;5082059;28;20024;-32
2022/10/10 11:50:44;;;;;;;10.68;4.25;;;16.80;99.90;;;;;;5074216;28;20123;-31
2022/10/10 11:53:30;;;;;;;10.10;4.50;;;16.70;99.90;;;;;;5090974;28;20387;-30
2022/10/10 11:56:08;;;;;;;10.10;3.78;;;16.60;99.90;;;;;;5091193;28;20032;-39
2022/10/10 11:58:37;;;;;;;8.57;4.28;;;16.60;99.90;;;;;;5088682;28;20039;-31
2022/10/10 12:01:26;;;;;;;13.98;4.53;;;16.60;99.90;;;;;;5089778;28;20483;-41
2022/10/10 12:03:51;;;;;;;8.55;3.80;;;16.50;99.90;;;;;;5072808;28;20388;-44
2022/10/10 12:06:43;;;;;;;9.55;3.75;;;16.60;99.90;;;;;;5089292;28;20020;-33
2022/10/10 12:09:30;;;;;;;10.27;4.50;;;16.60;99.90;;;;;;5093166;28;20203;-37
2022/10/10 12:12:18;;;;;;;8.70;5.53;;;16.50;99.90;;;;;;5076020;28;20035;-33
2022/10/10 12:14:52;;;;;;;17.85;4.40;;;16.50;99.90;;;;;;5092940;28;20441;-41
2022/10/10 12:17:21;;;;;;;12.55;4.97;;;16.50;99.90;;;;;;5090317;28;20028;-42
2022/10/10 12:19:49;;;;;;;9.05;4.72;;;16.50;99.90;;;;;;5091195;28;20027;-43
2022/10/10 12:22:29;;;;;;;13.35;3.75;;;16.50;99.90;;;;;;5096449;28;20457;-43
2022/10/10 12:25:26;;;;;;;10.65;3.90;;;16.50;99.90;;;;;;5095947;28;20028;-39
2022/10/10 12:28:13;;;;;;;12.05;4.63;;;16.40;99.90;;;;;;5076735;28;20024;-43
2022/10/10 12:30:53;;;;;;;9.60;4.28;;;16.30;99.90;;;;;;5088993;28;20016;-39
2022/10/10 12:33:42;;;;;;;9.88;4.60;;;16.40;99.90;;;;;;5091486;28;20038;-42
2022/10/10 12:36:17;;;;;;;7.95;3.10;;;16.30;99.90;;;;;;5095451;28;20115;-38
2022/10/10 12:39:05;;;;;;;8.15;5.18;;;16.30;99.90;;;;;;5081623;28;20023;-41
2022/10/10 12:41:39;;;;;;;;;;;16.20;99.90;;;;;;5081637;28;20522;-45
2022/10/10 12:44:19;;;;;;;10.32;3.40;;;16.10;99.90;;;;;;5072202;28;19951;-41
2022/10/10 12:46:47;;;;;;;6.20;2.72;;;16.00;99.90;;;;;;5080871;28;20027;-41
2022/10/10 12:49:23;;;;;;;9.05;2.85;;;16.00;99.90;;;;;;5095746;28;20472;-40
2022/10/10 12:52:19;;;;;;;8.27;2.60;;;15.90;99.90;;;;;;5094380;28;20070;-46
2022/10/10 12:54:45;;;;;;;6.78;2.17;;;15.80;99.90;;;;;;5079509;28;20073;-44
2022/10/10 12:57:14;;;;;;;3.85;1.98;;;15.90;99.90;;;;;;5092139;28;20115;-40
2022/10/10 12:59:40;;;;;;;7.03;2.63;;;15.90;99.90;;;;;;5095694;28;20446;-37
2022/10/10 13:02:16;;;;;;;3.90;2.08;;;15.80;99.90;;;;;;5093394;28;20549;-32
2022/10/10 13:04:44;;;;;;;2.65;1.23;;;15.80;99.90;;;;;;5096251;28;20103;-46
2022/10/10 13:07:15;;;;;;;3.08;1.35;;;15.80;99.90;;;;;;5094750;28;20089;-43
2022/10/10 13:09:46;;;;;;;5.55;1.27;;;15.80;99.90;;;;;;5095782;28;20024;-43